Time;durP1;ratioP1;P1;durP2;ratioP2;P2;SDS_P1;SDS_P2;PMS_P1;PMS_P2;Temp;Humidity;BMP_temperature;BMP_pressure;BME280_temperature;BME280_humidity;BME280_pressure;Samples;Min_cycle;Max_cycle;Signal;HPM_P1;HPM_P2
2023/03/08 00:00:26;;;;;;;5.97;2.28;;;-1.20;99.90;;;;;;5132087;27;20043;-49
2023/03/08 00:02:52;;;;;;;6.20;2.00;;;-1.20;99.90;;;;;;5131068;27;20039;-50
2023/03/08 00:05:18;;;;;;;4.53;2.15;;;-1.10;99.90;;;;;;5131561;27;20697;-50
2023/03/08 00:07:44;;;;;;;5.43;2.08;;;-1.30;99.90;;;;;;5130328;27;20141;-49
2023/03/08 00:10:10;;;;;;;5.03;1.90;;;-1.30;99.90;;;;;;5132259;27;20031;-48
2023/03/08 00:12:36;;;;;;;5.68;2.33;;;-1.20;99.90;;;;;;5130607;27;20047;-48
2023/03/08 00:15:02;;;;;;;4.65;2.15;;;-1.30;99.90;;;;;;5131238;27;20143;-48
2023/03/08 00:17:27;;;;;;;6.97;2.88;;;-1.30;99.90;;;;;;5088711;28;20036;-49
2023/03/08 00:19:53;;;;;;;6.78;3.03;;;-1.40;99.90;;;;;;5114387;27;20122;-50
2023/03/08 00:22:19;;;;;;;9.05;3.15;;;-1.30;99.90;;;;;;5130875;27;20031;-50
2023/03/08 00:24:45;;;;;;;7.85;4.03;;;-1.20;99.90;;;;;;5131782;27;20035;-48
2023/03/08 00:27:10;;;;;;;8.43;3.95;;;-1.20;99.90;;;;;;5129991;27;20081;-50
2023/03/08 00:29:36;;;;;;;9.48;4.57;;;-1.20;99.90;;;;;;5131683;27;20039;-49
2023/03/08 00:32:02;;;;;;;9.85;4.65;;;-1.40;99.90;;;;;;5091784;28;20035;-51
2023/03/08 00:34:27;;;;;;;13.55;5.40;;;-1.20;99.90;;;;;;5098368;28;20471;-48
2023/03/08 00:36:53;;;;;;;11.80;6.00;;;-1.30;99.90;;;;;;5126941;27;20087;-50
2023/03/08 00:39:19;;;;;;;12.00;5.45;;;-1.40;99.90;;;;;;5131576;27;20046;-46
2023/03/08 00:41:44;;;;;;;16.17;6.03;;;-1.40;99.90;;;;;;5131047;27;20031;-47
2023/03/08 00:44:10;;;;;;;13.25;6.38;;;-1.30;99.90;;;;;;5131119;27;20038;-50
2023/03/08 00:46:35;;;;;;;14.18;6.57;;;-1.20;99.90;;;;;;5129783;27;20478;-51
2023/03/08 00:49:03;;;;;;;13.52;7.07;;;-1.30;99.90;;;;;;5127731;27;20038;-48
2023/03/08 00:51:28;;;;;;;13.23;7.45;;;-1.20;99.90;;;;;;5129744;27;20135;-49
2023/03/08 00:53:54;;;;;;;15.20;7.82;;;-1.30;99.90;;;;;;5098444;28;20063;-51
2023/03/08 00:56:20;;;;;;;15.80;8.57;;;-1.40;99.90;;;;;;5091601;28;20031;-48
2023/03/08 00:58:45;;;;;;;14.00;7.95;;;-1.30;99.90;;;;;;5114010;27;20126;-49
2023/03/08 01:01:15;;;;;;;19.13;8.60;;;-1.40;99.90;;;;;;5130157;27;20031;-50
2023/03/08 01:03:40;;;;;;;18.17;8.48;;;-1.60;99.90;;;;;;5122785;27;20040;-49
2023/03/08 01:06:09;;;;;;;15.77;8.32;;;-1.40;99.90;;;;;;5117095;27;20035;-50
2023/03/08 01:08:36;;;;;;;15.38;8.05;;;-1.30;99.90;;;;;;5113234;27;20401;-51
2023/03/08 01:11:02;;;;;;;16.25;8.23;;;-1.50;99.90;;;;;;5128224;27;20413;-48
2023/03/08 01:13:31;;;;;;;18.77;8.30;;;-1.60;99.90;;;;;;5123022;27;20039;-51
2023/03/08 01:15:57;;;;;;;20.33;8.95;;;-1.50;99.90;;;;;;5117293;27;20080;-49
2023/03/08 01:18:23;;;;;;;16.77;8.55;;;-1.40;99.90;;;;;;5113338;27;20032;-51
2023/03/08 01:21:03;;;;;;;16.73;8.77;;;-1.60;99.90;;;;;;5127917;27;20443;-50
2023/03/08 01:23:29;;;;;;;15.93;8.20;;;-1.50;99.90;;;;;;5120976;27;20379;-49
2023/03/08 01:26:04;;;;;;;16.42;7.88;;;-1.70;99.90;;;;;;5118302;27;20042;-47
2023/03/08 01:28:30;;;;;;;12.05;7.28;;;-1.50;99.90;;;;;;5113027;27;20485;-48
2023/03/08 01:31:23;;;;;;;16.88;7.72;;;-1.60;99.90;;;;;;5125967;27;20379;-50
2023/03/08 01:33:49;;;;;;;16.40;7.07;;;-1.50;99.90;;;;;;5117542;27;20415;-50
2023/03/08 01:39:20;;;;;;;14.40;6.85;;;-1.50;99.90;;;;;;5112022;27;20031;-48
2023/03/08 01:41:46;;;;;;;11.68;6.43;;;-1.60;99.90;;;;;;5089716;28;20036;-47
2023/03/08 01:44:16;;;;;;;13.45;7.10;;;-1.80;99.90;;;;;;5090943;28;20532;-52
2023/03/08 01:46:42;;;;;;;12.82;6.50;;;-1.70;99.90;;;;;;5113768;27;20043;-48
2023/03/08 01:49:14;;;;;;;12.82;6.55;;;-1.80;99.90;;;;;;5130982;27;20037;-49
2023/03/08 01:51:48;;;;;;;13.25;6.60;;;-1.60;99.90;;;;;;5100934;28;20040;-52
2023/03/08 01:54:21;;;;;;;13.88;6.22;;;-1.60;99.90;;;;;;5119736;28;20035;-48
2023/03/08 01:56:49;;;;;;;12.70;6.10;;;-1.60;99.90;;;;;;5113101;28;21247;-52
2023/03/08 01:59:15;;;;;;;16.17;6.78;;;-1.70;99.90;;;;;;5121772;28;20047;-50
2023/03/08 02:01:41;;;;;;;11.40;5.97;;;-1.60;99.90;;;;;;5123047;28;20081;-48
2023/03/08 02:04:08;;;;;;;13.15;6.22;;;-1.60;99.90;;;;;;5130708;28;20031;-50
2023/03/08 02:06:34;;;;;;;12.20;6.20;;;-1.70;99.90;;;;;;5128294;28;20065;-51
2023/03/08 02:09:03;;;;;;;9.55;5.65;;;-1.60;99.90;;;;;;5099717;28;20479;-50
2023/03/08 02:11:31;;;;;;;12.00;6.25;;;-1.90;99.90;;;;;;5093559;28;20517;-49
2023/03/08 02:13:57;;;;;;;12.00;6.22;;;-1.90;99.90;;;;;;5115322;27;20043;-51
2023/03/08 02:16:22;;;;;;;13.35;6.47;;;-1.80;99.90;;;;;;5135396;27;20393;-52
2023/03/08 02:18:55;;;;;;;12.55;6.50;;;-1.90;99.90;;;;;;5106509;27;20039;-51
2023/03/08 02:21:21;;;;;;;12.68;5.90;;;-1.90;99.90;;;;;;5129799;27;20044;-51
2023/03/08 02:23:47;;;;;;;10.93;5.30;;;-1.70;99.90;;;;;;5092359;27;20064;-52
2023/03/08 02:26:12;;;;;;;12.13;6.13;;;-1.90;99.90;;;;;;5128973;27;20120;-51
2023/03/08 02:28:38;;;;;;;10.57;4.93;;;-1.70;99.90;;;;;;5133366;27;20398;-48
2023/03/08 02:31:04;;;;;;;16.75;5.35;;;-1.90;99.90;;;;;;5135283;27;20124;-49
2023/03/08 02:33:31;;;;;;;10.80;5.68;;;-1.70;99.90;;;;;;5135269;27;20077;-48
2023/03/08 02:35:57;;;;;;;14.50;5.50;;;-1.80;99.90;;;;;;5101072;28;20043;-52
2023/03/08 02:38:22;;;;;;;13.32;5.70;;;-1.90;99.90;;;;;;5129870;27;20413;-51
2023/03/08 02:40:50;;;;;;;17.95;5.10;;;-1.90;99.90;;;;;;5133064;27;20048;-49
2023/03/08 02:43:17;;;;;;;12.77;5.95;;;-1.90;99.90;;;;;;5132783;27;20047;-51
2023/03/08 02:45:43;;;;;;;11.63;5.20;;;-1.90;99.90;;;;;;5135085;27;20074;-51
2023/03/08 02:48:08;;;;;;;11.88;5.60;;;-1.60;99.90;;;;;;5134877;27;20127;-50
2023/03/08 02:50:35;;;;;;;9.45;5.70;;;-1.70;99.90;;;;;;5133517;27;20053;-50
2023/03/08 02:53:02;;;;;;;11.60;5.55;;;-1.60;99.90;;;;;;5132160;27;20043;-51
2023/03/08 02:55:28;;;;;;;12.50;6.22;;;-1.60;99.90;;;;;;5132470;27;20031;-48
2023/03/08 02:57:53;;;;;;;18.27;6.00;;;-1.60;99.90;;;;;;5132466;27;20039;-52
2023/03/08 03:00:19;;;;;;;11.95;5.20;;;-1.80;99.90;;;;;;5134663;27;20424;-51
2023/03/08 03:02:45;;;;;;;9.68;5.00;;;-1.60;99.90;;;;;;5134560;27;20039;-51
2023/03/08 03:05:11;;;;;;;10.30;5.72;;;-1.80;99.90;;;;;;5104961;28;20043;-52
2023/03/08 03:07:38;;;;;;;11.60;5.13;;;-1.50;99.90;;;;;;5121738;27;20035;-49
2023/03/08 03:10:06;;;;;;;11.35;5.80;;;-1.40;99.90;;;;;;5132655;27;20035;-52
2023/03/08 03:12:31;;;;;;;11.82;5.95;;;-1.60;99.90;;;;;;5132247;27;20031;-49
2023/03/08 03:14:57;;;;;;;11.85;6.40;;;-1.70;99.90;;;;;;5133769;27;20059;-48
2023/03/08 03:17:23;;;;;;;10.82;6.15;;;-1.70;99.90;;;;;;5131343;27;20122;-51
2023/03/08 03:19:48;;;;;;;14.73;5.80;;;-1.60;99.90;;;;;;5100434;28;20040;-46
2023/03/08 03:22:14;;;;;;;12.45;6.28;;;-1.60;99.90;;;;;;5129323;27;20428;-47
2023/03/08 03:24:40;;;;;;;11.10;6.28;;;-1.90;99.90;;;;;;5133384;27;20125;-49
2023/03/08 03:27:05;;;;;;;9.27;5.63;;;-1.70;99.90;;;;;;5131788;27;20070;-47
2023/03/08 03:29:31;;;;;;;11.45;6.03;;;-1.80;99.90;;;;;;5132299;27;20039;-50
2023/03/08 03:31:57;;;;;;;9.73;5.85;;;-1.60;99.90;;;;;;5076745;28;20036;-49
2023/03/08 03:34:22;;;;;;;12.75;6.53;;;-1.60;99.90;;;;;;5115880;27;20023;-48
2023/03/08 03:36:48;;;;;;;9.75;5.90;;;-1.90;99.90;;;;;;5131958;27;20072;-48
2023/03/08 03:39:14;;;;;;;11.02;5.80;;;-2.00;99.90;;;;;;5131405;27;20389;-51
2023/03/08 03:41:39;;;;;;;10.50;5.97;;;-1.80;99.90;;;;;;5131038;27;20075;-49
2023/03/08 03:44:05;;;;;;;10.35;6.10;;;-1.70;99.90;;;;;;5132451;27;20042;-47
2023/03/08 03:46:31;;;;;;;13.43;6.15;;;-1.90;99.90;;;;;;5131764;27;20039;-48
2023/03/08 03:48:57;;;;;;;10.07;6.75;;;-1.90;99.90;;;;;;5131875;27;20065;-50
2023/03/08 03:51:23;;;;;;;11.98;5.50;;;-1.90;99.90;;;;;;5131583;27;20043;-51
2023/03/08 03:53:48;;;;;;;11.60;5.43;;;-1.70;99.90;;;;;;5132587;27;20027;-47
2023/03/08 03:56:14;;;;;;;14.25;5.63;;;-2.00;99.90;;;;;;5132139;27;20054;-48
2023/03/08 03:58:40;;;;;;;10.45;6.00;;;-1.70;99.90;;;;;;5132000;27;20070;-50
2023/03/08 04:01:11;;;;;;;11.63;6.10;;;-2.00;99.90;;;;;;5132019;27;20035;-49
2023/03/08 04:03:37;;;;;;;9.20;5.32;;;-1.80;99.90;;;;;;5131514;27;20393;-48
2023/03/08 04:06:32;;;;;;;10.77;6.00;;;-1.80;99.90;;;;;;5133102;27;20062;-49
2023/03/08 04:09:01;;;;;;;9.10;5.78;;;-1.80;99.90;;;;;;5111381;27;20134;-47
2023/03/08 04:11:30;;;;;;;8.52;5.82;;;-1.90;99.90;;;;;;5085099;28;20115;-50
2023/03/08 04:13:56;;;;;;;13.20;6.20;;;-2.00;99.90;;;;;;5095035;27;20062;-49
2023/03/08 04:16:25;;;;;;;10.45;5.20;;;-2.00;99.90;;;;;;5132166;27;20118;-48
2023/03/08 04:18:59;;;;;;;10.05;5.35;;;-1.90;99.90;;;;;;5130104;27;20124;-48
2023/03/08 04:21:24;;;;;;;;;;;-2.00;99.90;;;;;;5099357;28;20546;-53
2023/03/08 04:23:50;;;;;;;9.65;5.57;;;-2.10;99.90;;;;;;5092295;28;20025;-48
2023/03/08 04:26:16;;;;;;;9.77;5.80;;;-2.20;99.90;;;;;;5110817;27;20111;-51
2023/03/08 04:28:42;;;;;;;13.05;6.38;;;-1.90;99.90;;;;;;5131248;27;20039;-48
2023/03/08 04:31:23;;;;;;;13.73;5.95;;;-1.90;99.90;;;;;;5131184;27;20096;-48
2023/03/08 04:33:49;;;;;;;10.13;6.30;;;-1.90;99.90;;;;;;5129803;27;20080;-50
2023/03/08 04:36:15;;;;;;;11.38;5.55;;;-1.90;99.90;;;;;;5131804;27;20106;-47
2023/03/08 04:38:42;;;;;;;14.60;5.70;;;-2.00;99.90;;;;;;5129826;27;20040;-52
2023/03/08 04:41:10;;;;;;;7.65;5.15;;;-2.20;99.90;;;;;;5131643;27;20046;-48
2023/03/08 04:43:51;;;;;;;7.60;4.85;;;-2.00;99.90;;;;;;5130158;27;20031;-48
2023/03/08 04:46:19;;;;;;;9.38;5.00;;;-2.00;99.90;;;;;;5129924;27;20049;-48
2023/03/08 04:48:45;;;;;;;11.00;5.25;;;-2.00;99.90;;;;;;5130866;27;20038;-52
2023/03/08 04:51:13;;;;;;;9.98;5.47;;;-2.30;99.90;;;;;;5129811;27;20035;-49
2023/03/08 04:53:40;;;;;;;9.05;5.50;;;-2.30;99.90;;;;;;5131142;27;20023;-49
2023/03/08 04:56:07;;;;;;;8.73;4.85;;;-2.10;99.90;;;;;;5130555;27;20043;-51
2023/03/08 04:58:35;;;;;;;12.35;5.13;;;-2.30;99.90;;;;;;5131442;27;20110;-48
2023/03/08 05:01:12;;;;;;;8.32;5.28;;;-2.20;99.90;;;;;;5130370;27;20042;-49
2023/03/08 05:03:37;;;;;;;12.30;5.60;;;-2.40;99.90;;;;;;5127782;27;20039;-48
2023/03/08 05:06:04;;;;;;;9.73;5.70;;;-2.10;99.90;;;;;;5130523;27;20051;-52
2023/03/08 05:08:29;;;;;;;9.65;5.20;;;-2.20;99.90;;;;;;5130905;27;20047;-49
2023/03/08 05:10:57;;;;;;;10.38;5.40;;;-2.10;99.90;;;;;;5130316;27;20039;-51
2023/03/08 05:13:28;;;;;;;8.68;5.00;;;-2.10;99.90;;;;;;5130191;27;20447;-50
2023/03/08 05:15:54;;;;;;;11.45;5.65;;;-2.10;99.90;;;;;;5129382;27;20111;-47
2023/03/08 05:18:20;;;;;;;10.00;5.53;;;-2.10;99.90;;;;;;5132025;27;21347;-49
2023/03/08 05:20:56;;;;;;;12.75;5.47;;;-2.30;99.90;;;;;;5101383;27;20032;-52
2023/03/08 05:23:24;;;;;;;8.07;5.50;;;-2.10;99.90;;;;;;5108419;27;20083;-49
2023/03/08 05:25:54;;;;;;;8.13;5.25;;;-2.10;99.90;;;;;;5129528;27;20074;-52
2023/03/08 05:28:22;;;;;;;9.52;5.97;;;-2.40;99.90;;;;;;5100363;28;20042;-48
2023/03/08 05:30:48;;;;;;;10.73;5.82;;;-2.40;99.90;;;;;;5123718;27;20051;-51
2023/03/08 05:33:16;;;;;;;11.45;5.53;;;-2.40;99.90;;;;;;5100300;28;20133;-49
2023/03/08 05:35:42;;;;;;;10.93;6.25;;;-2.10;99.90;;;;;;5124856;27;20047;-51
2023/03/08 05:38:07;;;;;;;11.05;6.72;;;-2.20;99.90;;;;;;5129920;27;20440;-52
2023/03/08 05:40:33;;;;;;;9.85;6.93;;;-2.10;99.90;;;;;;5129886;27;20042;-50
2023/03/08 05:42:58;;;;;;;12.32;8.05;;;-2.20;99.90;;;;;;5129718;27;20039;-49
2023/03/08 05:45:24;;;;;;;13.32;7.85;;;-2.20;99.90;;;;;;5128882;27;20395;-51
2023/03/08 05:47:50;;;;;;;12.68;7.43;;;-2.30;99.90;;;;;;5130409;27;20103;-50
2023/03/08 05:50:16;;;;;;;12.25;7.07;;;-2.20;99.90;;;;;;5129639;27;20050;-49
2023/03/08 05:52:41;;;;;;;9.15;5.97;;;-2.00;99.90;;;;;;5129103;28;20046;-50
2023/03/08 05:55:08;;;;;;;11.20;6.70;;;-2.10;99.90;;;;;;5129014;28;20085;-48
2023/03/08 05:57:35;;;;;;;13.75;6.88;;;-2.20;99.90;;;;;;5130510;28;20084;-51
2023/03/08 06:00:03;;;;;;;10.40;5.95;;;-2.30;99.90;;;;;;5129204;28;20039;-51
2023/03/08 06:02:29;;;;;;;10.57;6.07;;;-2.30;99.90;;;;;;5129720;28;20079;-49
2023/03/08 06:04:54;;;;;;;11.90;6.32;;;-2.10;99.90;;;;;;5128730;28;20062;-52
2023/03/08 06:07:20;;;;;;;11.25;6.63;;;-2.00;99.90;;;;;;5099217;28;20092;-48
2023/03/08 06:09:45;;;;;;;10.20;6.05;;;-2.00;99.90;;;;;;5097127;28;20078;-51
2023/03/08 06:12:11;;;;;;;12.32;6.70;;;-2.30;99.90;;;;;;5112891;28;20113;-49
2023/03/08 06:14:37;;;;;;;12.52;6.97;;;-2.30;99.90;;;;;;5128893;28;20047;-52
2023/03/08 06:17:03;;;;;;;12.02;6.38;;;-2.30;99.90;;;;;;5098908;28;20050;-52
2023/03/08 06:19:28;;;;;;;11.27;6.30;;;-2.20;99.90;;;;;;5097510;28;20095;-49
2023/03/08 06:21:54;;;;;;;13.07;6.45;;;-2.20;99.90;;;;;;5129396;28;20474;-52
2023/03/08 06:24:20;;;;;;;12.30;6.28;;;-2.10;99.90;;;;;;5129426;28;20071;-50
2023/03/08 06:26:45;;;;;;;11.35;6.63;;;-2.30;99.90;;;;;;5129230;28;20390;-52
2023/03/08 06:29:11;;;;;;;15.38;6.88;;;-2.00;99.90;;;;;;5097414;28;20096;-52
2023/03/08 06:31:36;;;;;;;13.73;7.07;;;-2.00;99.90;;;;;;5130366;28;20042;-48
2023/03/08 06:34:02;;;;;;;12.40;6.95;;;-2.00;99.90;;;;;;5127851;28;20051;-49
2023/03/08 06:36:28;;;;;;;16.13;7.70;;;-2.30;99.90;;;;;;5114262;28;20028;-51
2023/03/08 06:38:53;;;;;;;13.88;7.55;;;-2.20;99.90;;;;;;5128434;28;20074;-51
2023/03/08 06:41:20;;;;;;;12.60;7.90;;;-2.30;99.90;;;;;;5100369;28;20073;-49
2023/03/08 06:43:46;;;;;;;12.43;7.30;;;-2.10;99.90;;;;;;5122429;28;20031;-51
2023/03/08 06:46:15;;;;;;;14.95;8.07;;;-2.00;99.90;;;;;;5131111;28;20039;-49
2023/03/08 06:48:41;;;;;;;17.73;7.82;;;-1.90;99.90;;;;;;5130174;28;20043;-48
2023/03/08 06:51:07;;;;;;;13.75;7.55;;;-2.30;99.90;;;;;;5129439;28;20039;-51
2023/03/08 06:53:37;;;;;;;14.20;7.68;;;-2.00;99.90;;;;;;5129611;28;20035;-50
2023/03/08 06:56:03;;;;;;;13.05;7.72;;;-1.90;99.90;;;;;;5130213;27;20031;-49
2023/03/08 06:58:30;;;;;;;12.95;8.32;;;-2.20;99.90;;;;;;5130059;27;20045;-49
2023/03/08 07:00:58;;;;;;;14.20;8.00;;;-1.80;99.90;;;;;;5132979;27;20127;-49
2023/03/08 07:03:25;;;;;;;16.13;9.10;;;-1.80;99.90;;;;;;5132243;27;20054;-51
2023/03/08 07:05:50;;;;;;;22.00;8.88;;;-2.00;99.90;;;;;;5132900;27;20114;-48
2023/03/08 07:08:16;;;;;;;15.68;8.82;;;-2.10;99.90;;;;;;5132298;27;20439;-51
2023/03/08 07:10:42;;;;;;;13.73;8.85;;;-2.10;99.90;;;;;;5133822;27;20054;-53
2023/03/08 07:13:07;;;;;;;17.52;9.15;;;-1.80;99.90;;;;;;5131490;27;20107;-50
2023/03/08 07:15:33;;;;;;;17.85;10.15;;;-1.70;99.90;;;;;;5133051;27;20050;-49
2023/03/08 07:17:59;;;;;;;20.55;10.63;;;-2.10;99.90;;;;;;5099711;27;20036;-49
2023/03/08 07:20:26;;;;;;;16.75;10.32;;;-1.80;99.90;;;;;;5129654;27;20117;-52
2023/03/08 07:22:53;;;;;;;18.70;10.73;;;-1.70;99.90;;;;;;5131843;27;20069;-49
2023/03/08 07:25:20;;;;;;;22.40;11.25;;;-1.80;99.90;;;;;;5131948;27;20031;-51
2023/03/08 07:27:46;;;;;;;20.60;12.02;;;-1.80;99.90;;;;;;5132883;27;20031;-53
2023/03/08 07:30:14;;;;;;;26.83;12.27;;;-1.90;99.90;;;;;;5133814;27;20045;-51
2023/03/08 07:32:43;;;;;;;31.33;12.55;;;-1.70;99.90;;;;;;5132677;27;20091;-48
2023/03/08 07:35:12;;;;;;;35.88;13.90;;;-2.00;99.90;;;;;;5132289;27;20087;-49
2023/03/08 07:37:38;;;;;;;55.05;14.73;;;-2.00;99.90;;;;;;5131598;27;20094;-50
2023/03/08 07:40:05;;;;;;;50.03;13.98;;;-1.40;99.90;;;;;;5131658;27;20041;-50
2023/03/08 07:42:31;;;;;;;45.28;15.25;;;-2.00;99.90;;;;;;5132654;27;20798;-50
2023/03/08 07:44:57;;;;;;;71.82;16.60;;;-2.00;99.90;;;;;;5132923;27;20126;-49
2023/03/08 07:47:22;;;;;;;52.45;17.15;;;-1.60;99.90;;;;;;5131898;27;20035;-50
2023/03/08 07:49:48;;;;;;;41.22;14.27;;;-1.90;99.90;;;;;;5132108;27;20051;-51
2023/03/08 07:52:14;;;;;;;59.30;16.98;;;-1.70;99.90;;;;;;5093537;27;21098;-51
2023/03/08 07:54:40;;;;;;;38.22;17.08;;;-1.60;99.90;;;;;;5126841;27;20039;-51
2023/03/08 07:57:05;;;;;;;57.97;19.23;;;-1.70;99.90;;;;;;5124167;27;20173;-48
2023/03/08 07:59:31;;;;;;;80.53;18.20;;;-1.60;99.90;;;;;;5120050;27;20058;-49
2023/03/08 08:01:57;;;;;;;58.58;17.65;;;-1.40;99.90;;;;;;5090415;28;20032;-51
2023/03/08 08:04:23;;;;;;;57.03;17.95;;;-1.60;99.90;;;;;;5092641;28;20398;-48
2023/03/08 08:06:49;;;;;;;59.42;18.60;;;-1.50;99.90;;;;;;5127721;27;20042;-49
2023/03/08 08:09:16;;;;;;;64.45;19.15;;;-1.40;99.90;;;;;;5131467;27;20039;-48
2023/03/08 08:11:42;;;;;;;52.20;19.15;;;-1.80;99.90;;;;;;5124569;27;20050;-49
2023/03/08 08:14:07;;;;;;;49.08;19.15;;;-1.80;99.90;;;;;;5130090;27;20048;-49
2023/03/08 08:16:33;;;;;;;72.32;18.85;;;-1.70;99.90;;;;;;5095444;28;20043;-51
2023/03/08 08:18:59;;;;;;;57.15;18.67;;;-1.50;99.90;;;;;;5089865;28;20085;-48
2023/03/08 08:21:24;;;;;;;51.08;19.48;;;-1.70;99.90;;;;;;5116952;27;20050;-48
2023/03/08 08:23:50;;;;;;;63.28;19.60;;;-1.60;99.90;;;;;;5129234;27;20031;-49
2023/03/08 08:26:20;;;;;;;55.42;20.80;;;-1.40;99.90;;;;;;5128805;27;20038;-49
2023/03/08 08:28:49;;;;;;;51.78;19.83;;;-1.30;99.90;;;;;;5121563;27;20110;-48
2023/03/08 08:31:17;;;;;;;43.97;19.73;;;-1.20;99.90;;;;;;5127797;27;20049;-51
2023/03/08 08:33:43;;;;;;;47.63;19.23;;;-1.50;99.90;;;;;;5127546;27;20043;-50
2023/03/08 08:36:13;;;;;;;48.13;20.27;;;-1.50;99.90;;;;;;5128215;27;20084;-49
2023/03/08 08:38:39;;;;;;;40.38;20.10;;;-1.30;99.90;;;;;;5097650;28;20035;-50
2023/03/08 08:41:07;;;;;;;42.85;19.80;;;-1.20;99.90;;;;;;5124949;27;20428;-51
2023/03/08 08:43:34;;;;;;;40.08;19.23;;;-1.10;99.90;;;;;;5129840;27;20066;-49
2023/03/08 08:46:01;;;;;;;35.28;17.58;;;-1.20;99.90;;;;;;5127067;27;20078;-51
2023/03/08 08:48:27;;;;;;;45.55;20.30;;;-0.90;99.90;;;;;;5127957;27;20035;-52
2023/03/08 08:50:53;;;;;;;43.05;20.27;;;-1.20;99.90;;;;;;5077524;27;20050;-50
2023/03/08 08:53:21;;;;;;;55.70;22.88;;;-1.10;99.90;;;;;;5128591;27;20084;-52
2023/03/08 08:55:46;;;;;;;41.53;20.35;;;-0.70;99.90;;;;;;5124092;27;20024;-49
2023/03/08 08:58:13;;;;;;;43.13;20.08;;;-1.00;99.90;;;;;;5096033;28;20035;-49
2023/03/08 09:00:39;;;;;;;42.58;19.88;;;-0.90;99.90;;;;;;5092610;27;20099;-47
2023/03/08 09:03:05;;;;;;;46.13;20.58;;;-0.50;99.90;;;;;;5128834;27;20039;-51
2023/03/08 09:05:33;;;;;;;47.20;20.70;;;-0.60;99.90;;;;;;5130678;27;20550;-50
2023/03/08 09:08:00;;;;;;;39.42;19.27;;;-0.40;99.90;;;;;;5130162;27;20043;-48
2023/03/08 09:10:31;;;;;;;43.95;20.33;;;-0.70;99.90;;;;;;5129156;27;20096;-49
2023/03/08 09:12:57;;;;;;;46.63;21.95;;;-0.40;99.90;;;;;;5127363;27;20057;-50
2023/03/08 09:15:24;;;;;;;49.40;21.13;;;-0.30;99.90;;;;;;5121811;27;20482;-50
2023/03/08 09:17:50;;;;;;;46.03;20.60;;;-0.40;99.90;;;;;;5091563;27;20049;-49
2023/03/08 09:20:16;;;;;;;41.38;20.83;;;-0.50;99.90;;;;;;5120822;27;20139;-50
2023/03/08 09:22:42;;;;;;;39.72;19.45;;;-0.10;99.90;;;;;;5116461;27;20047;-50
2023/03/08 09:25:09;;;;;;;43.72;19.83;;;-0.40;99.90;;;;;;5121188;27;20482;-49
2023/03/08 09:27:36;;;;;;;35.40;18.15;;;-0.10;99.90;;;;;;5123977;27;20049;-52
2023/03/08 09:30:03;;;;;;;40.60;18.88;;;0.00;99.90;;;;;;5124899;27;20097;-49
2023/03/08 09:32:32;;;;;;;39.50;19.48;;;0.00;99.90;;;;;;5086176;27;20035;-50
2023/03/08 09:34:57;;;;;;;40.88;19.73;;;-0.30;99.90;;;;;;5120900;27;20035;-50
2023/03/08 09:37:23;;;;;;;42.65;20.73;;;0.00;99.90;;;;;;5119517;27;20035;-50
2023/03/08 09:39:50;;;;;;;41.58;20.10;;;-0.10;99.90;;;;;;5121454;27;20054;-52
2023/03/08 09:42:23;;;;;;;48.72;20.33;;;0.10;99.90;;;;;;5125537;27;20070;-51
2023/03/08 09:45:18;;;;;;;43.08;21.33;;;0.50;99.90;;;;;;5119447;28;20062;-50
2023/03/08 09:47:49;;;;;;;41.38;19.58;;;0.20;99.90;;;;;;5115197;27;20054;-48
2023/03/08 09:50:32;;;;;;;46.38;20.67;;;-0.10;99.90;;;;;;5112860;27;20390;-49
2023/03/08 09:53:23;;;;;;;44.30;19.67;;;0.00;99.90;;;;;;5105704;27;20063;-49
2023/03/08 09:56:05;;;;;;;46.90;20.35;;;0.00;99.90;;;;;;5117909;28;20425;-49
2023/03/08 09:58:51;;;;;;;44.95;20.38;;;0.30;99.90;;;;;;5110838;28;20034;-50
2023/03/08 10:01:41;;;;;;;42.08;20.63;;;0.10;99.90;;;;;;5080877;28;20036;-48
2023/03/08 10:04:17;;;;;;;46.72;19.73;;;0.20;99.90;;;;;;5093327;28;20039;-47
2023/03/08 10:07:21;;;;;;;42.70;19.88;;;0.30;99.90;;;;;;5122757;28;20046;-47
2023/03/08 10:10:10;;;;;;;44.20;20.10;;;0.50;99.90;;;;;;5088961;28;20036;-49
2023/03/08 10:13:02;;;;;;;48.25;21.35;;;0.70;99.90;;;;;;5059679;28;20035;-52
2023/03/08 10:15:31;;;;;;;43.55;20.35;;;0.70;99.90;;;;;;5093848;28;20047;-47
2023/03/08 10:18:03;;;;;;;49.78;21.80;;;1.30;99.90;;;;;;5114706;28;20493;-52
2023/03/08 10:20:33;;;;;;;46.50;21.48;;;0.80;99.90;;;;;;5105953;28;20105;-50
2023/03/08 10:23:05;;;;;;;46.40;21.50;;;1.50;99.90;;;;;;5105574;28;20031;-51
2023/03/08 10:25:33;;;;;;;45.17;21.27;;;1.20;99.90;;;;;;5101546;28;20419;-50
2023/03/08 10:28:01;;;;;;;40.78;19.63;;;1.20;99.90;;;;;;5100163;28;20224;-51
2023/03/08 10:30:40;;;;;;;40.30;19.42;;;1.80;99.90;;;;;;5098267;28;20089;-48
2023/03/08 10:33:11;;;;;;;41.17;19.30;;;1.60;99.90;;;;;;5101979;27;20497;-49
2023/03/08 10:35:51;;;;;;;41.15;18.98;;;1.80;99.90;;;;;;5102136;27;20031;-49
2023/03/08 10:38:17;;;;;;;39.50;19.73;;;2.00;99.90;;;;;;5106141;27;20085;-50
2023/03/08 10:40:43;;;;;;;32.97;16.92;;;2.10;99.90;;;;;;5113923;27;20039;-48
2023/03/08 10:43:25;;;;;;;31.88;17.70;;;2.30;99.90;;;;;;5111925;27;20031;-49
2023/03/08 10:46:09;;;;;;;31.67;14.90;;;2.30;99.90;;;;;;5092359;27;20107;-46
2023/03/08 10:48:35;;;;;;;30.77;15.25;;;2.40;99.90;;;;;;5094616;27;20046;-50
2023/03/08 10:51:04;;;;;;;28.05;15.25;;;2.30;99.90;;;;;;5103810;27;20032;-49
2023/03/08 10:53:31;;;;;;;26.55;14.25;;;2.50;99.90;;;;;;5102604;27;20472;-48
2023/03/08 10:55:59;;;;;;;28.08;14.95;;;2.40;99.90;;;;;;5101525;27;20038;-52
2023/03/08 10:58:37;;;;;;;26.52;13.77;;;2.60;99.90;;;;;;5103961;27;20047;-51
2023/03/08 11:01:24;;;;;;;25.33;13.52;;;2.60;99.90;;;;;;5105248;27;20076;-50
2023/03/08 11:04:16;;;;;;;26.80;14.75;;;2.60;99.90;;;;;;5104815;27;20036;-48
2023/03/08 11:06:42;;;;;;;28.58;14.27;;;2.60;99.90;;;;;;5102348;27;20044;-49
2023/03/08 11:09:26;;;;;;;23.00;12.70;;;2.50;99.90;;;;;;5100913;27;20468;-48
2023/03/08 11:11:53;;;;;;;23.77;12.38;;;2.60;99.90;;;;;;5104806;27;20046;-51
2023/03/08 11:14:19;;;;;;;25.23;13.75;;;2.60;99.90;;;;;;5104515;27;20147;-50
2023/03/08 11:17:10;;;;;;;26.58;12.82;;;2.70;99.90;;;;;;5101688;27;20067;-52
2023/03/08 11:19:42;;;;;;;22.65;12.40;;;2.80;99.90;;;;;;5091966;27;20047;-49
2023/03/08 11:22:41;;;;;;;24.05;13.10;;;2.80;99.90;;;;;;5101453;27;20065;-49
2023/03/08 11:25:43;;;;;;;21.70;11.93;;;2.90;99.90;;;;;;5102169;27;20036;-51
2023/03/08 11:28:20;;;;;;;24.45;13.00;;;2.90;99.90;;;;;;5103028;27;20122;-47
2023/03/08 11:30:57;;;;;;;23.30;13.18;;;2.90;99.90;;;;;;5103033;27;20409;-50
2023/03/08 11:33:26;;;;;;;27.88;13.05;;;3.00;99.90;;;;;;5101712;27;20036;-52
2023/03/08 11:36:19;;;;;;;25.08;12.13;;;2.70;99.90;;;;;;5109274;27;20454;-49
2023/03/08 11:38:56;;;;;;;20.13;11.60;;;3.20;99.90;;;;;;5107860;27;20104;-51
2023/03/08 11:41:43;;;;;;;18.73;10.35;;;3.20;99.90;;;;;;5097957;27;20479;-50
2023/03/08 11:44:29;;;;;;;16.45;9.15;;;3.20;99.90;;;;;;5102039;27;20536;-50
2023/03/08 11:47:14;;;;;;;17.40;9.43;;;3.30;99.90;;;;;;5104525;27;20043;-51
2023/03/08 11:49:53;;;;;;;16.58;10.10;;;3.30;99.90;;;;;;5103950;27;20039;-48
2023/03/08 11:52:49;;;;;;;22.30;9.95;;;3.30;99.90;;;;;;5107184;27;20474;-47
2023/03/08 11:55:39;;;;;;;16.98;8.80;;;3.30;99.90;;;;;;5104849;27;20721;-47
2023/03/08 11:58:40;;;;;;;17.08;9.07;;;3.30;99.90;;;;;;5105308;27;20573;-52
2023/03/08 12:01:14;;;;;;;18.85;9.40;;;3.30;99.90;;;;;;5104176;27;20099;-51
2023/03/08 12:03:44;;;;;;;14.70;8.32;;;3.20;99.90;;;;;;5102103;27;20043;-51
2023/03/08 12:06:22;;;;;;;17.33;9.48;;;3.30;99.90;;;;;;5100942;27;20067;-49
2023/03/08 12:09:12;;;;;;;16.65;8.15;;;3.20;99.90;;;;;;5103218;27;20047;-48
2023/03/08 12:11:43;;;;;;;16.77;8.45;;;3.20;99.90;;;;;;5111121;27;20055;-53
2023/03/08 12:14:31;;;;;;;16.10;8.30;;;3.20;99.90;;;;;;5081554;27;20743;-49
2023/03/08 12:17:08;;;;;;;18.42;9.10;;;3.20;99.90;;;;;;5098373;27;20028;-50
2023/03/08 12:19:42;;;;;;;16.48;8.40;;;3.30;99.90;;;;;;5093012;27;20092;-49
2023/03/08 12:22:29;;;;;;;18.00;7.72;;;3.40;99.90;;;;;;5100617;27;20023;-50
2023/03/08 12:25:21;;;;;;;15.80;8.05;;;3.50;99.90;;;;;;5099885;27;20077;-51
2023/03/08 12:27:56;;;;;;;18.65;7.88;;;3.50;99.90;;;;;;5104723;27;20039;-49
2023/03/08 12:30:33;;;;;;;14.90;7.20;;;3.50;99.90;;;;;;5100831;27;20047;-49
2023/03/08 12:33:02;;;;;;;16.83;8.18;;;3.60;99.90;;;;;;5105557;27;20299;-48
2023/03/08 12:35:36;;;;;;;13.05;7.38;;;3.70;99.90;;;;;;5105653;27;20425;-50
2023/03/08 12:38:30;;;;;;;13.52;6.45;;;3.70;99.90;;;;;;5100937;27;20034;-50
2023/03/08 12:40:55;;;;;;;15.38;7.18;;;3.70;99.90;;;;;;5103540;27;20046;-48
2023/03/08 12:43:21;;;;;;;15.48;7.13;;;3.70;99.90;;;;;;5104421;27;20036;-48
2023/03/08 12:45:59;;;;;;;16.08;7.03;;;3.70;99.90;;;;;;5101947;27;20108;-50
2023/03/08 12:48:43;;;;;;;14.82;6.88;;;3.80;99.90;;;;;;5078683;28;20084;-48
2023/03/08 12:51:13;;;;;;;13.95;6.43;;;3.80;99.90;;;;;;5105011;27;20043;-50
2023/03/08 12:53:50;;;;;;;17.00;6.93;;;3.90;99.90;;;;;;5103345;27;20031;-49